createdAt,value
2023-03-07T00:02:23.679Z,19.31
2023-03-07T00:04:53.040Z,19.28
2023-03-07T00:07:19.502Z,19.29
2023-03-07T00:09:45.973Z,19.32
2023-03-07T00:12:12.455Z,19.31
2023-03-07T00:14:39.043Z,19.31
2023-03-07T00:17:05.502Z,19.31
2023-03-07T00:19:32.200Z,19.30
2023-03-07T00:21:58.683Z,19.31
2023-03-07T00:24:25.382Z,19.32
2023-03-07T00:26:51.873Z,19.32
2023-03-07T00:29:18.356Z,19.33
2023-03-07T00:31:44.849Z,19.35
2023-03-07T00:34:11.492Z,19.35
2023-03-07T00:36:38.024Z,19.36
2023-03-07T00:39:04.506Z,19.38
2023-03-07T00:41:31.172Z,19.37
2023-03-07T00:43:57.690Z,19.36
2023-03-07T00:46:25.702Z,19.38
2023-03-07T00:48:53.236Z,19.35
2023-03-07T00:51:21.623Z,19.33
2023-03-07T00:53:49.018Z,19.34
2023-03-07T00:56:17.518Z,19.33
2023-03-07T00:58:45.121Z,19.34
2023-03-07T01:01:14.677Z,19.35
2023-03-07T01:03:41.383Z,19.32
2023-03-07T01:06:10.389Z,19.29
2023-03-07T01:08:36.986Z,19.29
2023-03-07T01:11:05.694Z,19.26
2023-03-07T01:13:33.873Z,19.28
2023-03-07T01:16:28.284Z,19.29
2023-03-07T01:18:58.188Z,19.28
2023-03-07T01:21:29.275Z,19.26
2023-03-07T01:23:57.320Z,19.26
2023-03-07T01:26:27.398Z,19.24
2023-03-07T01:28:56.747Z,19.24
2023-03-07T01:31:25.084Z,19.22
2023-03-07T01:33:53.382Z,19.22
2023-03-07T01:36:30.518Z,19.21
2023-03-07T01:39:14.170Z,19.15
2023-03-07T01:41:51.469Z,19.13
2023-03-07T01:44:25.848Z,19.13
2023-03-07T01:46:57.405Z,19.12
2023-03-07T01:49:35.830Z,19.10
2023-03-07T01:52:21.843Z,19.09
2023-03-07T01:54:56.173Z,19.09
2023-03-07T01:57:28.589Z,19.08
2023-03-07T01:59:58.633Z,19.07
2023-03-07T02:02:26.199Z,19.02
2023-03-07T02:05:00.010Z,19.02
2023-03-07T02:07:31.316Z,18.99
2023-03-07T02:09:58.367Z,18.96
2023-03-07T02:12:25.042Z,18.96
2023-03-07T02:14:52.267Z,18.93
2023-03-07T02:17:19.874Z,18.93
2023-03-07T02:20:20.884Z,18.95
2023-03-07T02:22:49.728Z,18.96
2023-03-07T02:25:40.758Z,18.97
2023-03-07T02:28:11.701Z,18.99
2023-03-07T02:30:39.202Z,18.99
2023-03-07T02:33:05.699Z,19.01
2023-03-07T02:35:32.288Z,19.04
2023-03-07T02:38:04.773Z,19.06
2023-03-07T02:40:32.557Z,19.10
2023-03-07T02:43:09.313Z,19.12
2023-03-07T02:45:37.608Z,19.12
2023-03-07T02:48:04.306Z,19.13
2023-03-07T02:50:30.963Z,19.14
2023-03-07T02:52:57.496Z,19.19
2023-03-07T02:55:24.031Z,19.22
2023-03-07T02:58:00.577Z,19.20
2023-03-07T03:00:27.346Z,19.20
2023-03-07T03:02:53.835Z,19.21
2023-03-07T03:05:20.391Z,19.20
2023-03-07T03:07:48.464Z,19.18
2023-03-07T03:10:15.097Z,19.16
2023-03-07T03:12:41.678Z,19.15
2023-03-07T03:15:09.513Z,19.15
2023-03-07T03:17:36.209Z,19.15
2023-03-07T03:20:07.450Z,19.15
2023-03-07T03:22:33.932Z,19.14
2023-03-07T03:25:00.931Z,19.19
2023-03-07T03:27:27.415Z,19.20
2023-03-07T03:29:54.465Z,19.18
2023-03-07T03:32:21.335Z,19.19
2023-03-07T03:34:48.379Z,19.21
2023-03-07T03:37:14.834Z,19.24
2023-03-07T03:39:42.065Z,19.24
2023-03-07T03:42:09.564Z,19.25
2023-03-07T03:44:36.347Z,19.25
2023-03-07T03:47:02.913Z,19.26
2023-03-07T03:49:29.430Z,19.26
2023-03-07T03:51:56.069Z,19.25
2023-03-07T03:54:22.559Z,19.24
2023-03-07T03:56:49.022Z,19.22
2023-03-07T03:59:15.521Z,19.19
2023-03-07T04:01:42.368Z,19.17
2023-03-07T04:04:09.116Z,19.17
2023-03-07T04:06:37.191Z,19.16
2023-03-07T04:09:05.146Z,19.19
2023-03-07T04:11:32.601Z,19.19
2023-03-07T04:13:59.397Z,19.19
2023-03-07T04:16:25.993Z,19.19
2023-03-07T04:18:53.125Z,19.17
2023-03-07T04:21:20.451Z,19.18
2023-03-07T04:23:55.388Z,19.20
2023-03-07T04:26:23.476Z,19.23
2023-03-07T04:28:50.203Z,19.24
2023-03-07T04:31:23.502Z,19.24
2023-03-07T04:33:50.939Z,19.22
2023-03-07T04:36:17.889Z,19.24
2023-03-07T04:38:46.764Z,19.24
2023-03-07T04:41:26.186Z,19.25
2023-03-07T04:44:21.931Z,19.23
2023-03-07T04:46:48.492Z,19.24
2023-03-07T04:49:16.055Z,19.25
2023-03-07T04:51:44.096Z,19.22
2023-03-07T04:54:12.028Z,19.22
2023-03-07T04:56:38.941Z,19.20
2023-03-07T04:59:06.567Z,19.17
2023-03-07T05:01:33.106Z,19.15
2023-03-07T05:04:00.607Z,19.16
2023-03-07T05:06:27.837Z,19.19
2023-03-07T05:08:54.264Z,19.17
2023-03-07T05:11:20.839Z,19.15
2023-03-07T05:13:48.632Z,19.14
2023-03-07T05:16:18.588Z,19.14
2023-03-07T05:18:45.746Z,19.18
2023-03-07T05:21:12.612Z,19.17
2023-03-07T05:23:39.670Z,19.20
2023-03-07T05:26:07.444Z,19.17
2023-03-07T05:28:34.154Z,19.19
2023-03-07T05:31:00.814Z,19.19
2023-03-07T05:33:27.518Z,19.22
2023-03-07T05:35:55.604Z,19.22
2023-03-07T05:38:22.975Z,19.22
2023-03-07T05:40:49.511Z,19.22
2023-03-07T05:43:16.110Z,19.23
2023-03-07T05:45:42.657Z,19.22
2023-03-07T05:48:09.252Z,19.19
2023-03-07T05:50:38.100Z,19.16
2023-03-07T05:53:05.014Z,19.18
2023-03-07T05:55:31.903Z,19.14
2023-03-07T05:57:59.212Z,19.16
2023-03-07T06:00:26.160Z,19.15
2023-03-07T06:02:56.840Z,19.16
2023-03-07T06:05:25.386Z,19.16
2023-03-07T06:07:52.355Z,19.15
2023-03-07T06:10:18.924Z,19.17
2023-03-07T06:12:50.013Z,19.19
2023-03-07T06:15:16.908Z,19.22
2023-03-07T06:17:43.993Z,19.20
2023-03-07T06:20:11.341Z,19.20
2023-03-07T06:22:38.261Z,19.20
2023-03-07T06:25:06.557Z,19.20
2023-03-07T06:27:37.081Z,19.19
2023-03-07T06:30:05.639Z,19.19
2023-03-07T06:32:32.569Z,19.18
2023-03-07T06:34:59.384Z,19.18
2023-03-07T06:37:26.974Z,19.17
2023-03-07T06:39:54.347Z,19.15
2023-03-07T06:42:20.870Z,19.13
2023-03-07T06:44:47.577Z,19.13
2023-03-07T06:47:14.268Z,19.11
2023-03-07T06:49:41.629Z,19.10
2023-03-07T06:52:08.505Z,19.11
2023-03-07T06:54:35.002Z,19.14
2023-03-07T06:57:01.562Z,19.15
2023-03-07T06:59:28.057Z,19.15
2023-03-07T07:01:55.149Z,19.17
2023-03-07T07:04:22.384Z,19.17
2023-03-07T07:06:50.478Z,19.20
2023-03-07T07:09:17.085Z,19.20
2023-03-07T07:11:43.747Z,19.22
2023-03-07T07:14:12.326Z,19.21
2023-03-07T07:16:39.894Z,19.22
2023-03-07T07:19:07.198Z,19.21
2023-03-07T07:21:35.525Z,19.21
2023-03-07T07:24:02.308Z,19.19
2023-03-07T07:26:29.623Z,19.18
2023-03-07T07:28:58.005Z,19.16
2023-03-07T07:31:24.539Z,19.17
2023-03-07T07:33:51.226Z,19.16
2023-03-07T07:36:18.462Z,19.14
2023-03-07T07:38:45.036Z,19.16
2023-03-07T07:41:12.341Z,19.14
2023-03-07T07:43:38.849Z,19.14
2023-03-07T07:46:18.460Z,19.14
2023-03-07T07:48:47.910Z,19.14
2023-03-07T07:51:15.103Z,19.15
2023-03-07T07:53:41.783Z,19.15
2023-03-07T07:56:08.971Z,19.16
2023-03-07T07:58:35.623Z,19.15
2023-03-07T08:01:18.807Z,19.15
2023-03-07T08:03:45.892Z,19.12
2023-03-07T08:06:13.457Z,19.12
2023-03-07T08:08:39.916Z,19.09
2023-03-07T08:11:06.357Z,19.09
2023-03-07T08:13:32.818Z,19.09
2023-03-07T08:15:59.460Z,19.10
2023-03-07T08:18:26.208Z,19.11
2023-03-07T08:20:52.672Z,19.12
2023-03-07T08:23:19.180Z,19.12
2023-03-07T08:25:45.669Z,19.11
2023-03-07T08:28:12.115Z,19.10
2023-03-07T08:30:38.613Z,19.12
2023-03-07T08:33:05.120Z,19.14
2023-03-07T08:35:32.008Z,19.13
2023-03-07T08:38:01.856Z,19.11
2023-03-07T08:40:29.949Z,19.08
2023-03-07T08:42:56.520Z,19.08
2023-03-07T08:45:23.898Z,19.09
2023-03-07T08:47:54.326Z,19.08
2023-03-07T08:50:26.374Z,19.08
2023-03-07T08:52:52.908Z,19.08
2023-03-07T08:55:20.414Z,19.04
2023-03-07T08:57:47.493Z,19.08
2023-03-07T09:00:16.024Z,19.10
2023-03-07T09:02:42.567Z,19.10
2023-03-07T09:05:10.171Z,19.10
2023-03-07T09:07:36.724Z,19.08
2023-03-07T09:10:05.840Z,19.05
2023-03-07T09:12:34.139Z,19.05
2023-03-07T09:15:00.732Z,19.05
2023-03-07T09:17:27.307Z,19.04
2023-03-07T09:19:53.858Z,19.04
2023-03-07T09:22:20.324Z,19.05
2023-03-07T09:24:46.797Z,19.08
2023-03-07T09:27:13.247Z,19.09
2023-03-07T09:29:39.727Z,19.08
2023-03-07T09:32:06.410Z,19.08
2023-03-07T09:34:32.996Z,19.07
2023-03-07T09:36:59.520Z,19.08
2023-03-07T09:39:26.100Z,19.09
2023-03-07T09:42:04.421Z,19.08
2023-03-07T09:45:20.375Z,19.07
2023-03-07T09:48:05.417Z,19.05
2023-03-07T09:50:48.704Z,19.04
2023-03-07T09:53:31.206Z,19.05
2023-03-07T09:56:01.913Z,19.08
2023-03-07T09:58:28.492Z,19.07
2023-03-07T10:00:59.913Z,19.06
2023-03-07T10:03:35.777Z,19.05
2023-03-07T10:06:12.395Z,19.07
2023-03-07T10:08:38.902Z,19.06
2023-03-07T10:11:18.279Z,19.10
2023-03-07T10:14:29.182Z,19.08
2023-03-07T10:17:18.500Z,19.06
2023-03-07T10:19:50.801Z,19.05
2023-03-07T10:22:33.828Z,19.03
2023-03-07T10:25:50.496Z,19.04
2023-03-07T10:28:29.963Z,19.03
2023-03-07T10:31:20.786Z,19.03
2023-03-07T10:33:49.448Z,19.01
2023-03-07T10:36:32.913Z,19.04
2023-03-07T10:39:06.400Z,19.04
2023-03-07T10:41:32.864Z,19.07
2023-03-07T10:43:59.471Z,19.08
2023-03-07T10:46:30.808Z,19.09
2023-03-07T10:49:08.699Z,19.08
2023-03-07T10:51:44.910Z,19.08
2023-03-07T10:54:16.704Z,19.07
2023-03-07T10:57:07.419Z,19.08
2023-03-07T10:59:34.658Z,19.10
2023-03-07T11:02:03.287Z,19.09
2023-03-07T11:04:43.806Z,19.08
2023-03-07T11:07:27.842Z,19.08
2023-03-07T11:09:55.576Z,19.04
2023-03-07T11:12:24.525Z,19.05
2023-03-07T11:15:12.404Z,19.05
2023-03-07T11:17:47.598Z,19.07
2023-03-07T11:20:23.314Z,19.09
2023-03-07T11:22:51.505Z,19.09
2023-03-07T11:25:25.733Z,19.09
2023-03-07T11:27:57.803Z,19.10
2023-03-07T11:30:25.461Z,19.07
2023-03-07T11:32:58.661Z,19.07
2023-03-07T11:35:40.384Z,19.07
2023-03-07T11:38:06.873Z,19.07
2023-03-07T11:40:56.608Z,19.08
2023-03-07T11:43:37.448Z,19.08
2023-03-07T11:46:09.994Z,19.08
2023-03-07T11:48:42.526Z,19.07
2023-03-07T11:51:31.136Z,19.08
2023-03-07T11:54:11.248Z,19.08
2023-03-07T11:56:44.347Z,19.08
2023-03-07T11:59:49.086Z,19.10
2023-03-07T12:02:32.371Z,19.13
2023-03-07T12:05:21.260Z,19.11
2023-03-07T12:07:59.606Z,19.11
2023-03-07T12:10:31.197Z,19.08
2023-03-07T12:13:03.741Z,19.07
2023-03-07T12:15:44.674Z,19.08
2023-03-07T12:18:35.147Z,19.05
2023-03-07T12:21:35.348Z,19.04
2023-03-07T12:24:30.803Z,19.05
2023-03-07T12:27:02.416Z,19.11
2023-03-07T12:29:37.466Z,19.12
2023-03-07T12:32:16.083Z,19.11
2023-03-07T12:34:49.910Z,19.11
2023-03-07T12:37:30.250Z,19.12
2023-03-07T12:40:03.512Z,19.09
2023-03-07T12:42:42.909Z,19.09
2023-03-07T12:45:16.808Z,19.08
2023-03-07T12:48:08.900Z,19.08
2023-03-07T12:50:47.598Z,19.08
2023-03-07T12:53:23.345Z,19.08
2023-03-07T12:56:02.634Z,19.07
2023-03-07T12:58:53.015Z,19.07
2023-03-07T13:01:26.723Z,19.08
2023-03-07T13:04:24.333Z,19.07
2023-03-07T13:06:53.775Z,19.07
2023-03-07T13:09:26.624Z,19.11
2023-03-07T13:12:23.219Z,19.10
2023-03-07T13:15:01.795Z,19.12
2023-03-07T13:17:31.130Z,19.10
2023-03-07T13:19:59.208Z,19.11
2023-03-07T13:22:25.604Z,19.12
2023-03-07T13:24:56.472Z,19.12
2023-03-07T13:27:32.021Z,19.11
2023-03-07T13:30:08.187Z,19.09
2023-03-07T13:32:55.110Z,19.08
2023-03-07T13:35:30.541Z,19.07
2023-03-07T13:38:15.288Z,19.04
2023-03-07T13:40:44.666Z,19.05
2023-03-07T13:43:20.301Z,19.05
2023-03-07T13:45:56.815Z,19.07
2023-03-07T13:48:32.427Z,19.08
2023-03-07T13:50:58.892Z,19.09
2023-03-07T13:53:28.950Z,19.10
2023-03-07T13:56:14.317Z,19.10
2023-03-07T13:59:01.095Z,19.11
2023-03-07T14:01:40.787Z,19.10
2023-03-07T14:04:19.031Z,19.10
2023-03-07T14:06:54.584Z,19.06
2023-03-07T14:09:26.231Z,19.05
2023-03-07T14:12:17.864Z,19.04
2023-03-07T14:15:03.094Z,19.05
2023-03-07T14:17:38.450Z,19.05
2023-03-07T14:20:42.690Z,19.05
2023-03-07T14:23:47.012Z,19.05
2023-03-07T14:26:21.407Z,19.07
2023-03-07T14:28:57.751Z,19.07
2023-03-07T14:31:30.227Z,19.09
2023-03-07T14:33:57.676Z,19.07
2023-03-07T14:36:27.757Z,19.08
2023-03-07T14:38:57.126Z,19.04
2023-03-07T14:41:45.945Z,19.06
2023-03-07T14:44:33.436Z,19.05
2023-03-07T14:47:16.858Z,19.05
2023-03-07T14:50:06.557Z,19.08
2023-03-07T14:52:33.448Z,19.10
2023-03-07T14:55:03.396Z,19.04
2023-03-07T14:57:34.816Z,19.03
2023-03-07T15:00:28.863Z,19.05
2023-03-07T15:03:04.303Z,19.01
2023-03-07T15:05:37.334Z,18.99
2023-03-07T15:08:04.182Z,18.99
2023-03-07T15:10:44.179Z,18.99
2023-03-07T15:13:26.914Z,18.98
2023-03-07T15:16:00.193Z,18.99
2023-03-07T15:18:43.741Z,18.98
2023-03-07T15:21:20.444Z,18.96
2023-03-07T15:23:56.395Z,18.96
2023-03-07T15:26:27.685Z,18.96
2023-03-07T15:29:11.174Z,18.96
2023-03-07T15:32:02.837Z,18.97
2023-03-07T15:34:34.881Z,18.95
2023-03-07T15:37:24.401Z,18.92
2023-03-07T15:40:22.921Z,18.94
2023-03-07T15:42:51.343Z,18.94
2023-03-07T15:45:32.854Z,18.95
2023-03-07T15:48:14.513Z,18.94
2023-03-07T15:50:41.284Z,18.93
2023-03-07T15:53:10.259Z,18.93
2023-03-07T15:55:38.851Z,18.90
2023-03-07T15:58:13.434Z,18.91
2023-03-07T16:00:41.844Z,18.91
2023-03-07T16:03:29.730Z,18.92
2023-03-07T16:05:58.328Z,18.91
2023-03-07T16:08:24.872Z,18.93
2023-03-07T16:11:00.330Z,18.92
2023-03-07T16:13:48.113Z,18.93
2023-03-07T16:16:22.147Z,18.92
2023-03-07T16:18:50.452Z,18.92
2023-03-07T16:21:18.263Z,18.93
2023-03-07T16:23:46.061Z,18.95
2023-03-07T16:26:16.853Z,18.94
2023-03-07T16:28:44.324Z,18.94
2023-03-07T16:31:16.396Z,18.93
2023-03-07T16:33:44.060Z,18.91
2023-03-07T16:36:11.726Z,18.89
2023-03-07T16:38:38.414Z,18.93
2023-03-07T16:41:14.622Z,18.91
2023-03-07T16:43:41.248Z,18.91
2023-03-07T16:46:15.031Z,18.91
2023-03-07T16:48:42.182Z,18.91
2023-03-07T16:51:16.690Z,18.91
2023-03-07T16:53:45.204Z,18.92
2023-03-07T16:56:19.652Z,18.92
2023-03-07T16:58:46.188Z,18.93
2023-03-07T17:01:13.941Z,18.92
2023-03-07T17:03:41.626Z,18.92
2023-03-07T17:06:13.857Z,18.90
2023-03-07T17:08:40.634Z,18.86
2023-03-07T17:11:18.366Z,18.87
2023-03-07T17:13:46.143Z,18.87
2023-03-07T17:16:17.429Z,18.87
2023-03-07T17:18:43.964Z,18.90
2023-03-07T17:21:16.066Z,18.90
2023-03-07T17:23:44.007Z,18.90
2023-03-07T17:26:19.005Z,18.90
2023-03-07T17:28:46.182Z,18.88
2023-03-07T17:31:12.701Z,18.89
2023-03-07T17:33:39.212Z,18.91
2023-03-07T17:36:06.036Z,18.89
2023-03-07T17:38:32.523Z,18.91
2023-03-07T17:40:59.058Z,18.88
2023-03-07T17:43:25.550Z,18.88
2023-03-07T17:45:52.037Z,18.86
2023-03-07T17:48:18.518Z,18.85
2023-03-07T17:50:45.067Z,18.86
2023-03-07T17:53:11.571Z,18.87
2023-03-07T17:55:38.855Z,18.87
2023-03-07T17:58:10.066Z,18.87
2023-03-07T18:00:38.249Z,18.87
2023-03-07T18:03:05.670Z,18.86
2023-03-07T18:05:33.349Z,18.86
2023-03-07T18:07:59.867Z,18.87
2023-03-07T18:10:26.568Z,18.88
2023-03-07T18:12:55.726Z,18.86
2023-03-07T18:15:23.589Z,18.87
2023-03-07T18:17:50.369Z,18.87
2023-03-07T18:20:19.264Z,18.87
2023-03-07T18:22:46.012Z,18.84
2023-03-07T18:25:14.629Z,18.84
2023-03-07T18:27:41.447Z,18.87
2023-03-07T18:30:08.899Z,18.86
2023-03-07T18:32:35.564Z,18.87
2023-03-07T18:35:02.024Z,18.86
2023-03-07T18:37:28.832Z,18.86
2023-03-07T18:39:55.854Z,18.88
2023-03-07T18:42:22.516Z,18.89
2023-03-07T18:44:49.016Z,18.90
2023-03-07T18:47:15.605Z,18.89
2023-03-07T18:49:42.289Z,18.89
2023-03-07T18:52:08.823Z,18.87
2023-03-07T18:54:35.332Z,18.88
2023-03-07T18:57:01.831Z,18.86
2023-03-07T18:59:28.314Z,18.86
2023-03-07T19:01:55.073Z,18.87
2023-03-07T19:04:21.570Z,18.86
2023-03-07T19:06:48.555Z,18.85
2023-03-07T19:09:20.104Z,18.84
2023-03-07T19:11:47.639Z,18.85
2023-03-07T19:14:14.287Z,18.86
2023-03-07T19:16:40.997Z,18.87
2023-03-07T19:19:07.565Z,18.86
2023-03-07T19:21:34.391Z,18.87
2023-03-07T19:24:03.447Z,18.87
2023-03-07T19:26:30.332Z,18.86
2023-03-07T19:28:57.523Z,18.86
2023-03-07T19:31:27.822Z,18.83
2023-03-07T19:33:55.184Z,18.82
2023-03-07T19:36:27.608Z,18.82
2023-03-07T19:38:56.390Z,18.83
2023-03-07T19:41:24.819Z,18.83
2023-03-07T19:43:51.762Z,18.83
2023-03-07T19:46:19.956Z,18.83
2023-03-07T19:48:47.668Z,18.83
2023-03-07T19:51:17.001Z,18.85
2023-03-07T19:53:45.128Z,18.86
2023-03-07T19:56:18.909Z,18.87
2023-03-07T19:58:45.497Z,18.84
2023-03-07T20:01:15.046Z,18.86
2023-03-07T20:03:41.955Z,18.88
2023-03-07T20:06:14.123Z,18.86
2023-03-07T20:08:40.622Z,18.84
2023-03-07T20:11:11.550Z,18.84
2023-03-07T20:13:38.788Z,18.83
2023-03-07T20:16:05.919Z,18.81
2023-03-07T20:18:32.434Z,18.83
2023-03-07T20:21:20.605Z,18.81
2023-03-07T20:23:48.339Z,18.82
2023-03-07T20:26:23.156Z,18.83
2023-03-07T20:28:54.062Z,18.83
2023-03-07T20:31:22.057Z,18.82
2023-03-07T20:33:49.202Z,18.82
2023-03-07T20:36:33.610Z,18.82
2023-03-07T20:39:02.839Z,18.82
2023-03-07T20:41:31.659Z,18.81
2023-03-07T20:44:04.070Z,18.82
2023-03-07T20:46:31.493Z,18.87
2023-03-07T20:48:59.595Z,18.85
2023-03-07T20:51:28.621Z,18.83
2023-03-07T20:54:01.307Z,18.84
2023-03-07T20:56:30.323Z,18.81
2023-03-07T20:58:57.579Z,18.79
2023-03-07T21:01:26.262Z,18.80
2023-03-07T21:03:53.827Z,18.81
2023-03-07T21:06:20.930Z,18.81
2023-03-07T21:08:47.694Z,18.82
2023-03-07T21:11:17.983Z,18.82
2023-03-07T21:13:47.438Z,18.81
2023-03-07T21:16:17.216Z,18.81
2023-03-07T21:18:44.128Z,18.82
2023-03-07T21:21:16.607Z,18.82
2023-03-07T21:23:43.981Z,18.82
2023-03-07T21:26:13.110Z,18.81
2023-03-07T21:28:40.162Z,18.81
2023-03-07T21:31:13.767Z,18.78
2023-03-07T21:33:42.785Z,18.79
2023-03-07T21:36:13.133Z,18.78
2023-03-07T21:38:41.177Z,18.78
2023-03-07T21:41:07.807Z,18.81
2023-03-07T21:43:34.485Z,18.82
2023-03-07T21:46:06.452Z,18.81
2023-03-07T21:48:33.856Z,18.79
2023-03-07T21:51:01.552Z,18.79
2023-03-07T21:53:28.249Z,18.80
2023-03-07T21:56:00.378Z,18.82
2023-03-07T21:58:27.939Z,18.81
2023-03-07T22:00:56.271Z,18.78
2023-03-07T22:03:28.833Z,18.75
2023-03-07T22:05:57.375Z,18.77
2023-03-07T22:08:24.148Z,18.77
2023-03-07T22:11:01.786Z,18.76
2023-03-07T22:13:28.884Z,18.76
2023-03-07T22:16:07.408Z,18.76
2023-03-07T22:18:34.635Z,18.78
2023-03-07T22:21:09.598Z,18.76
2023-03-07T22:23:36.377Z,18.77
2023-03-07T22:26:05.492Z,18.78
2023-03-07T22:28:32.572Z,18.78
2023-03-07T22:31:03.984Z,18.80
2023-03-07T22:33:30.646Z,18.77
2023-03-07T22:35:59.146Z,18.76
2023-03-07T22:38:25.945Z,18.75
2023-03-07T22:40:52.508Z,18.74
2023-03-07T22:43:19.163Z,18.72
2023-03-07T22:45:50.102Z,18.71
2023-03-07T22:48:16.654Z,18.73
2023-03-07T22:50:43.175Z,18.75
2023-03-07T22:53:10.224Z,18.75
2023-03-07T22:55:41.942Z,18.75
2023-03-07T22:58:09.703Z,18.75
2023-03-07T23:00:37.406Z,18.76
2023-03-07T23:03:03.964Z,18.74
2023-03-07T23:05:32.499Z,18.75
2023-03-07T23:07:59.981Z,18.74
2023-03-07T23:10:27.438Z,18.74
2023-03-07T23:12:54.114Z,18.76
2023-03-07T23:15:21.636Z,18.74
2023-03-07T23:17:48.336Z,18.73
2023-03-07T23:20:14.954Z,18.74
2023-03-07T23:22:42.864Z,18.73
2023-03-07T23:25:11.121Z,18.72
2023-03-07T23:27:37.927Z,18.73
2023-03-07T23:30:06.266Z,18.73
2023-03-07T23:32:32.921Z,18.75
2023-03-07T23:34:59.685Z,18.73
2023-03-07T23:37:26.738Z,18.72
2023-03-07T23:39:53.299Z,18.73
2023-03-07T23:42:20.022Z,18.72
2023-03-07T23:44:49.707Z,18.70
2023-03-07T23:47:16.906Z,18.68
2023-03-07T23:49:46.826Z,18.69
2023-03-07T23:52:13.304Z,18.68
2023-03-07T23:54:41.924Z,18.70
2023-03-07T23:57:08.403Z,18.69
2023-03-07T23:59:34.904Z,18.70
